Time;durP1;ratioP1;P1;durP2;ratioP2;P2;SDS_P1;SDS_P2;PMS_P1;PMS_P2;Temp;Humidity;BMP_temperature;BMP_pressure;BME280_temperature;BME280_humidity;BME280_pressure;Samples;Min_cycle;Max_cycle;Signal;HPM_P1;HPM_P2
2020/12/29 00:00:56;;;;;;;7.30;6.70;;;9.40;79.50;;;;;;5107841;28;20294;-77
2020/12/29 00:03:27;;;;;;;7.57;6.88;;;9.40;80.50;;;;;;5109273;28;20190;-76
2020/12/29 00:05:53;;;;;;;7.13;6.43;;;9.30;80.30;;;;;;5109396;28;20186;-77
2020/12/29 00:08:19;;;;;;;7.83;7.00;;;9.40;79.60;;;;;;5109841;28;20172;-77
2020/12/29 00:10:44;;;;;;;8.00;7.20;;;9.50;79.30;;;;;;5109633;28;20259;-76
2020/12/29 00:13:19;;;;;;;7.43;6.60;;;9.50;78.70;;;;;;5109896;28;20461;-77
2020/12/29 00:15:59;;;;;;;6.80;6.30;;;9.30;79.60;;;;;;5109651;28;20179;-77
2020/12/29 00:18:31;;;;;;;7.43;6.53;;;9.40;79.00;;;;;;5108969;27;20729;-77
2020/12/29 00:21:03;;;;;;;8.82;7.07;;;9.40;79.10;;;;;;5109028;28;20553;-77
2020/12/29 00:23:28;;;;;;;7.00;6.40;;;9.40;79.50;;;;;;5109533;28;20180;-77
2020/12/29 00:25:58;;;;;;;7.77;7.00;;;9.40;79.40;;;;;;5107889;28;20225;-77
2020/12/29 00:28:35;;;;;;;7.45;5.75;;;9.30;79.80;;;;;;5109454;28;20729;-77
2020/12/29 00:31:03;;;;;;;5.93;5.43;;;9.20;81.20;;;;;;5109441;28;20183;-76
2020/12/29 00:33:32;;;;;;;5.80;5.30;;;9.20;80.70;;;;;;5109441;28;20184;-77
2020/12/29 00:36:11;;;;;;;7.20;6.35;;;9.10;81.10;;;;;;5108523;27;20632;-77
2020/12/29 00:38:37;;;;;;;7.40;6.80;;;9.20;80.80;;;;;;5108949;28;20246;-76
2020/12/29 00:41:09;;;;;;;7.63;6.93;;;9.10;81.00;;;;;;5107857;28;20445;-77
2020/12/29 00:43:35;;;;;;;6.50;5.82;;;9.10;81.70;;;;;;5107996;28;20628;-76
2020/12/29 00:46:14;;;;;;;7.25;6.55;;;9.10;82.20;;;;;;5109248;28;20190;-76
2020/12/29 00:48:43;;;;;;;7.35;6.65;;;9.00;84.20;;;;;;5107995;28;20196;-76
2020/12/29 00:51:26;;;;;;;7.78;6.80;;;8.90;87.00;;;;;;5108344;28;20519;-77
2020/12/29 00:53:52;;;;;;;7.30;6.60;;;8.70;89.20;;;;;;5107387;28;20314;-77
2020/12/29 00:56:33;;;;;;;7.10;6.40;;;8.60;90.10;;;;;;5108770;28;20627;-76
2020/12/29 00:59:02;;;;;;;7.20;6.05;;;8.70;90.10;;;;;;5109590;28;20521;-76
2020/12/29 01:01:27;;;;;;;7.32;5.53;;;8.70;90.20;;;;;;5108860;28;20461;-76
2020/12/29 01:03:53;;;;;;;7.20;6.50;;;8.60;90.50;;;;;;5108138;28;20198;-76
2020/12/29 01:06:32;;;;;;;6.90;6.30;;;8.60;90.60;;;;;;5108351;28;20172;-76
2020/12/29 01:08:57;;;;;;;7.05;6.45;;;8.70;90.10;;;;;;5106787;28;20168;-76
2020/12/29 01:11:26;;;;;;;7.50;6.80;;;8.70;89.50;;;;;;5109074;28;20566;-76
2020/12/29 01:13:52;;;;;;;9.40;6.10;;;8.70;89.20;;;;;;5108884;28;20396;-76
2020/12/29 01:16:21;;;;;;;7.03;6.43;;;8.70;90.00;;;;;;5107087;28;20521;-76
2020/12/29 01:18:50;;;;;;;7.43;6.72;;;8.70;90.10;;;;;;5108435;28;20225;-76
2020/12/29 01:21:16;;;;;;;7.95;7.15;;;8.70;90.70;;;;;;5108217;28;20233;-77
2020/12/29 01:23:41;;;;;;;8.50;7.70;;;8.60;91.30;;;;;;5107673;28;20183;-77
2020/12/29 01:26:36;;;;;;;8.10;7.40;;;8.50;92.60;;;;;;5108437;28;20255;-76
2020/12/29 01:29:05;;;;;;;9.85;8.00;;;8.70;93.60;;;;;;5105352;28;20188;-76
2020/12/29 01:31:31;;;;;;;8.80;7.55;;;8.50;94.20;;;;;;5108202;28;20233;-76
2020/12/29 01:34:13;;;;;;;9.05;8.25;;;8.50;94.80;;;;;;5108248;28;20747;-76
2020/12/29 01:36:38;;;;;;;8.95;7.25;;;8.50;94.40;;;;;;5087860;28;20699;-77
2020/12/29 01:39:04;;;;;;;8.90;8.00;;;8.50;94.90;;;;;;5102235;28;20187;-77
2020/12/29 01:41:32;;;;;;;9.73;7.63;;;8.50;95.60;;;;;;5107937;28;20304;-76
2020/12/29 01:44:20;;;;;;;10.07;8.35;;;8.50;96.10;;;;;;5107997;28;20176;-77
2020/12/29 01:46:53;;;;;;;8.55;7.63;;;8.50;96.40;;;;;;5108010;28;20688;-77
2020/12/29 01:49:25;;;;;;;6.10;5.10;;;8.50;97.10;;;;;;5107875;28;20258;-77
2020/12/29 01:51:50;;;;;;;7.40;6.65;;;8.60;96.50;;;;;;5108473;28;20662;-77
2020/12/29 01:54:31;;;;;;;10.17;8.13;;;8.50;96.50;;;;;;5107234;28;20310;-76
2020/12/29 01:57:08;;;;;;;8.90;8.10;;;8.60;96.80;;;;;;5106783;28;20192;-76
2020/12/29 01:59:43;;;;;;;9.05;7.78;;;8.60;96.70;;;;;;5107924;28;20176;-77
2020/12/29 02:02:20;;;;;;;6.97;6.18;;;8.50;97.00;;;;;;5107591;28;20680;-77
2020/12/29 02:04:50;;;;;;;7.80;5.43;;;8.60;96.80;;;;;;5107847;28;20156;-77
2020/12/29 02:07:17;;;;;;;5.75;5.15;;;8.60;96.80;;;;;;5108090;28;20176;-77
2020/12/29 02:09:45;;;;;;;7.43;5.50;;;8.70;96.70;;;;;;5107589;28;20592;-77
2020/12/29 02:12:37;;;;;;;5.82;4.80;;;8.70;96.90;;;;;;5106449;28;20188;-77
2020/12/29 02:15:06;;;;;;;4.60;3.70;;;8.70;96.40;;;;;;5108010;28;20695;-77
2020/12/29 02:17:34;;;;;;;5.35;4.30;;;8.70;96.20;;;;;;5106390;28;20548;-77
2020/12/29 02:20:00;;;;;;;5.65;3.30;;;8.80;96.10;;;;;;5107490;28;20588;-77
2020/12/29 02:22:27;;;;;;;4.37;3.57;;;8.70;96.10;;;;;;5106959;28;20286;-77
2020/12/29 02:24:59;;;;;;;4.55;3.45;;;8.70;95.90;;;;;;5107266;28;20701;-77
2020/12/29 02:27:27;;;;;;;3.90;3.03;;;8.80;95.50;;;;;;5107256;28;20180;-77
2020/12/29 02:29:57;;;;;;;2.22;2.00;;;8.80;95.30;;;;;;5104791;28;20652;-77
2020/12/29 02:32:23;;;;;;;2.60;1.98;;;8.80;95.00;;;;;;5107266;28;20183;-77
2020/12/29 02:34:52;;;;;;;2.05;1.60;;;8.90;95.10;;;;;;5106868;28;20258;-77
2020/12/29 02:37:20;;;;;;;2.17;1.80;;;8.80;95.00;;;;;;5107201;28;20190;-77
2020/12/29 02:39:51;;;;;;;2.97;2.15;;;8.70;95.40;;;;;;5107449;28;20667;-77
2020/12/29 02:42:16;;;;;;;2.03;1.77;;;8.60;95.60;;;;;;5105972;28;20207;-78
2020/12/29 02:44:42;;;;;;;3.87;2.03;;;8.60;95.70;;;;;;5106129;28;20190;-77
2020/12/29 02:47:10;;;;;;;2.10;1.90;;;8.60;95.80;;;;;;5107247;27;20188;-77
2020/12/29 02:49:36;;;;;;;1.40;1.25;;;8.50;96.10;;;;;;5108375;28;20183;-78
2020/12/29 02:52:07;;;;;;;1.97;1.20;;;8.50;96.10;;;;;;5107275;28;20531;-77
2020/12/29 02:54:39;;;;;;;1.63;1.13;;;8.40;96.20;;;;;;5106227;28;20180;-78
2020/12/29 02:57:04;;;;;;;2.97;1.10;;;8.40;96.00;;;;;;5105406;28;20532;-77
2020/12/29 02:59:45;;;;;;;1.67;0.90;;;8.40;95.90;;;;;;5106066;28;20191;-77
2020/12/29 03:02:17;;;;;;;1.95;0.98;;;8.40;95.80;;;;;;5106194;28;20207;-76
2020/12/29 03:04:43;;;;;;;1.00;1.00;;;8.30;96.00;;;;;;5105528;28;20179;-77
2020/12/29 03:07:15;;;;;;;0.77;0.77;;;8.30;96.00;;;;;;5106908;28;20172;-76
2020/12/29 03:09:47;;;;;;;3.22;1.20;;;8.20;96.20;;;;;;5105969;28;20179;-76
2020/12/29 03:12:21;;;;;;;1.10;1.00;;;8.20;96.20;;;;;;5105753;28;20187;-77
2020/12/29 03:14:53;;;;;;;1.65;1.55;;;8.20;96.30;;;;;;5106865;28;20581;-77
2020/12/29 03:17:29;;;;;;;1.00;0.90;;;8.10;96.40;;;;;;5104659;28;20183;-76
2020/12/29 03:19:54;;;;;;;1.15;0.82;;;8.10;96.30;;;;;;5107657;28;20179;-77
2020/12/29 03:22:23;;;;;;;2.33;1.27;;;8.00;96.40;;;;;;5106943;28;20811;-77
2020/12/29 03:25:00;;;;;;;1.40;1.30;;;8.10;96.20;;;;;;5107204;28;20182;-77
2020/12/29 03:27:26;;;;;;;1.65;1.02;;;8.00;96.10;;;;;;5105679;28;20631;-77
2020/12/29 03:30:00;;;;;;;3.83;1.10;;;8.00;96.10;;;;;;5105564;28;20226;-77
2020/12/29 03:32:26;;;;;;;1.40;0.90;;;8.00;96.00;;;;;;5106722;28;20698;-78
2020/12/29 03:34:54;;;;;;;0.83;0.80;;;8.00;95.80;;;;;;5106319;28;20270;-78
2020/12/29 03:37:29;;;;;;;2.30;1.10;;;8.00;95.70;;;;;;5111233;28;20183;-77
2020/12/29 03:39:54;;;;;;;2.42;0.90;;;8.00;95.40;;;;;;5111167;28;20175;-77
2020/12/29 03:42:20;;;;;;;1.30;1.13;;;8.00;95.20;;;;;;5110658;28;20207;-77
2020/12/29 03:44:54;;;;;;;2.20;1.23;;;8.00;94.90;;;;;;5110566;28;20639;-77
2020/12/29 03:47:23;;;;;;;2.10;1.42;;;8.00;94.80;;;;;;5110788;28;20254;-77
2020/12/29 03:49:49;;;;;;;1.45;0.82;;;8.00;94.60;;;;;;5108674;28;20194;-77
2020/12/29 03:52:14;;;;;;;2.07;1.10;;;8.00;94.30;;;;;;5108447;28;20188;-76
2020/12/29 03:54:40;;;;;;;0.70;0.63;;;8.10;94.10;;;;;;5110406;28;20522;-77
2020/12/29 03:57:05;;;;;;;1.83;0.90;;;8.10;93.80;;;;;;5110824;28;20180;-77
2020/12/29 03:59:43;;;;;;;1.07;0.80;;;8.10;94.00;;;;;;5110512;27;20171;-77
2020/12/29 04:02:26;;;;;;;0.60;0.50;;;8.00;94.00;;;;;;5110429;28;20215;-77
2020/12/29 04:04:58;;;;;;;1.15;0.80;;;8.00;94.00;;;;;;5110327;28;20238;-77
2020/12/29 04:07:29;;;;;;;1.50;0.80;;;8.00;94.30;;;;;;5109657;28;20218;-76
2020/12/29 04:09:58;;;;;;;1.67;1.20;;;8.00;94.10;;;;;;5110306;28;20165;-77
2020/12/29 04:12:29;;;;;;;0.60;0.52;;;8.00;94.20;;;;;;5110535;28;20703;-77
2020/12/29 04:14:55;;;;;;;0.90;0.43;;;7.90;94.20;;;;;;5108683;28;20229;-77
2020/12/29 04:17:33;;;;;;;0.93;0.50;;;7.90;94.10;;;;;;5108979;28;20188;-77
2020/12/29 04:20:02;;;;;;;0.88;0.50;;;7.90;94.10;;;;;;5109986;28;20172;-77
2020/12/29 04:22:47;;;;;;;0.80;0.70;;;7.80;94.40;;;;;;5106722;28;20216;-76
2020/12/29 04:25:15;;;;;;;0.63;0.50;;;7.80;94.30;;;;;;5110024;28;20172;-77
2020/12/29 04:27:41;;;;;;;1.50;1.08;;;7.80;94.30;;;;;;5110064;28;20179;-77
2020/12/29 04:30:10;;;;;;;0.80;0.50;;;7.70;94.40;;;;;;5109936;28;20672;-77
2020/12/29 04:32:37;;;;;;;1.80;1.30;;;7.70;94.20;;;;;;5109914;28;20192;-77
2020/12/29 04:35:10;;;;;;;0.50;0.50;;;7.70;94.30;;;;;;5110140;28;20208;-77
2020/12/29 04:37:36;;;;;;;2.35;1.25;;;7.60;94.30;;;;;;5109020;28;20230;-77
2020/12/29 04:40:06;;;;;;;2.05;0.70;;;7.60;94.10;;;;;;5109153;28;20183;-77
2020/12/29 04:42:35;;;;;;;1.85;1.20;;;7.60;94.30;;;;;;5109955;28;20215;-77
2020/12/29 04:45:05;;;;;;;1.45;0.90;;;7.40;94.70;;;;;;5108520;28;20171;-77
2020/12/29 04:47:34;;;;;;;0.98;0.77;;;7.40;95.10;;;;;;5107624;28;20183;-77
2020/12/29 04:50:03;;;;;;;1.90;1.65;;;7.20;95.20;;;;;;5109476;28;20474;-77
2020/12/29 04:52:32;;;;;;;4.72;3.30;;;7.20;95.30;;;;;;5109358;28;20635;-77
2020/12/29 04:55:02;;;;;;;4.22;2.70;;;7.20;95.40;;;;;;5108587;28;20160;-77
2020/12/29 04:57:31;;;;;;;2.88;2.30;;;7.20;95.30;;;;;;5109712;28;20184;-77
2020/12/29 05:00:03;;;;;;;7.05;5.40;;;7.10;95.50;;;;;;5107879;28;20282;-77
2020/12/29 05:02:28;;;;;;;2.97;2.55;;;7.10;95.50;;;;;;5109186;28;20223;-77
2020/12/29 05:04:56;;;;;;;4.50;2.90;;;7.10;95.40;;;;;;5108015;28;20182;-77
2020/12/29 05:07:22;;;;;;;3.10;2.90;;;7.00;95.60;;;;;;5109911;28;20216;-78
2020/12/29 05:09:51;;;;;;;3.20;2.47;;;7.10;95.50;;;;;;5108304;28;20268;-77
2020/12/29 05:12:19;;;;;;;3.35;3.05;;;7.00;95.60;;;;;;5108606;28;20175;-77
2020/12/29 05:15:00;;;;;;;1.80;1.35;;;7.00;95.60;;;;;;5109295;28;20182;-77
2020/12/29 05:17:29;;;;;;;7.90;5.75;;;7.00;95.60;;;;;;5107957;28;20703;-77
2020/12/29 05:19:57;;;;;;;5.05;4.18;;;6.90;95.80;;;;;;5109356;28;20563;-77
2020/12/29 05:22:23;;;;;;;5.18;4.68;;;7.00;95.50;;;;;;5109426;28;20207;-77
2020/12/29 05:24:52;;;;;;;19.47;16.47;;;7.00;95.40;;;;;;5109416;28;20528;-77
2020/12/29 05:27:24;;;;;;;14.52;12.00;;;7.10;95.10;;;;;;5108987;28;20218;-77
2020/12/29 05:29:52;;;;;;;9.68;5.78;;;7.00;95.50;;;;;;5108895;28;20201;-77
2020/12/29 05:32:18;;;;;;;7.97;7.13;;;7.00;95.50;;;;;;5108075;28;20192;-77
2020/12/29 05:34:49;;;;;;;2.10;2.00;;;7.00;95.40;;;;;;5108510;28;20418;-77
2020/12/29 05:37:17;;;;;;;6.20;2.67;;;7.00;95.20;;;;;;5109009;28;20184;-77
2020/12/29 05:39:42;;;;;;;5.50;4.20;;;7.00;95.20;;;;;;5108583;28;20187;-77
2020/12/29 05:42:11;;;;;;;4.20;3.50;;;6.90;95.20;;;;;;5109029;28;20614;-77
2020/12/29 05:44:38;;;;;;;4.68;3.28;;;6.80;95.40;;;;;;5107095;28;20210;-77
2020/12/29 05:47:04;;;;;;;4.28;3.92;;;6.70;95.90;;;;;;5108947;28;20233;-77
2020/12/29 05:49:33;;;;;;;4.40;4.00;;;6.60;96.00;;;;;;5109088;28;20592;-77
2020/12/29 05:51:59;;;;;;;7.20;6.50;;;6.50;96.10;;;;;;5110412;28;20219;-77
2020/12/29 05:54:38;;;;;;;10.50;5.80;;;6.60;96.10;;;;;;5107676;28;20236;-77
2020/12/29 05:57:21;;;;;;;6.95;5.75;;;6.50;96.10;;;;;;5108655;28;20683;-77
2020/12/29 05:59:50;;;;;;;16.38;11.65;;;6.60;96.00;;;;;;5107555;28;20175;-77
2020/12/29 06:02:16;;;;;;;9.40;7.45;;;6.50;95.90;;;;;;5107465;28;20218;-78
2020/12/29 06:04:42;;;;;;;16.90;15.10;;;6.50;95.90;;;;;;5107896;28;20179;-78
2020/12/29 06:07:13;;;;;;;24.00;16.70;;;6.50;95.80;;;;;;5109110;28;20180;-77
2020/12/29 06:09:46;;;;;;;11.05;7.82;;;6.50;95.50;;;;;;5109215;28;20619;-77
2020/12/29 06:12:30;;;;;;;4.35;3.33;;;6.60;95.40;;;;;;5107754;28;20236;-76
2020/12/29 06:15:02;;;;;;;5.55;3.42;;;6.60;95.30;;;;;;5107707;27;20172;-77
2020/12/29 06:17:32;;;;;;;3.50;2.45;;;6.60;95.40;;;;;;5107174;28;20564;-77
2020/12/29 06:20:05;;;;;;;2.60;2.25;;;6.60;95.20;;;;;;5107833;28;20226;-77
2020/12/29 06:22:34;;;;;;;2.80;2.55;;;6.50;95.40;;;;;;5106751;28;20329;-77
2020/12/29 06:25:02;;;;;;;2.80;2.20;;;6.40;95.50;;;;;;5108065;28;20546;-77
2020/12/29 06:27:37;;;;;;;4.85;2.30;;;6.40;95.50;;;;;;5108837;28;20249;-77
2020/12/29 06:30:09;;;;;;;3.10;2.45;;;6.40;95.60;;;;;;5107574;28;20155;-77
2020/12/29 06:32:42;;;;;;;5.68;3.58;;;6.40;95.50;;;;;;5107091;28;20686;-77
2020/12/29 06:35:15;;;;;;;6.85;4.65;;;6.40;95.50;;;;;;5106572;28;20713;-77
2020/12/29 06:38:04;;;;;;;6.78;4.13;;;6.30;95.60;;;;;;5106340;28;20560;-77
2020/12/29 06:40:31;;;;;;;5.10;4.60;;;6.20;95.70;;;;;;5099620;28;20194;-77
2020/12/29 06:42:59;;;;;;;5.15;3.15;;;6.30;95.60;;;;;;5105993;28;20179;-76
2020/12/29 06:45:32;;;;;;;3.60;2.55;;;6.40;95.10;;;;;;5107485;28;20171;-77
2020/12/29 06:48:23;;;;;;;4.70;2.83;;;6.40;94.90;;;;;;5108289;28;20156;-77
2020/12/29 06:50:48;;;;;;;4.40;2.80;;;6.40;95.00;;;;;;5106604;28;20236;-78
2020/12/29 06:53:26;;;;;;;4.37;3.00;;;6.40;94.90;;;;;;5107804;28;20231;-77
2020/12/29 06:55:57;;;;;;;3.17;2.50;;;6.50;94.60;;;;;;5105933;28;20198;-78
2020/12/29 06:58:36;;;;;;;4.10;3.70;;;6.50;94.60;;;;;;5107003;28;20636;-77
2020/12/29 07:01:26;;;;;;;7.82;6.20;;;6.50;94.40;;;;;;5105147;28;20219;-77
2020/12/29 07:04:07;;;;;;;10.10;7.28;;;6.60;94.30;;;;;;5102847;28;20184;-78
2020/12/29 07:06:37;;;;;;;9.90;6.57;;;6.60;94.20;;;;;;5105507;28;20175;-77
2020/12/29 07:09:21;;;;;;;18.95;14.32;;;6.50;94.40;;;;;;5107732;28;20176;-78
2020/12/29 07:12:12;;;;;;;23.20;18.65;;;6.60;94.20;;;;;;5111019;28;20180;-78
2020/12/29 07:14:39;;;;;;;8.45;6.55;;;6.60;94.40;;;;;;5111806;28;20566;-78
2020/12/29 07:17:09;;;;;;;4.90;4.30;;;6.60;94.30;;;;;;5110370;28;20716;-78
2020/12/29 07:19:39;;;;;;;6.78;5.10;;;6.50;94.50;;;;;;5111123;28;20236;-77
2020/12/29 07:22:16;;;;;;;47.28;22.58;;;6.60;94.50;;;;;;5110427;28;20254;-78
2020/12/29 07:24:47;;;;;;;11.30;9.50;;;6.50;94.50;;;;;;5112226;28;20160;-77
2020/12/29 07:27:19;;;;;;;9.35;5.45;;;6.60;94.40;;;;;;5111864;28;20537;-77
2020/12/29 07:30:00;;;;;;;5.20;4.32;;;6.60;94.10;;;;;;5112011;28;20176;-78
2020/12/29 07:32:26;;;;;;;7.18;5.38;;;6.70;93.90;;;;;;5111698;28;20233;-78
2020/12/29 07:34:52;;;;;;;11.80;5.68;;;6.90;93.60;;;;;;5111882;28;20183;-78
2020/12/29 07:37:31;;;;;;;6.27;4.73;;;6.90;93.40;;;;;;5109868;28;20742;-78
2020/12/29 07:40:02;;;;;;;10.00;7.97;;;7.10;92.90;;;;;;5111447;28;20396;-78
2020/12/29 07:42:28;;;;;;;8.40;7.50;;;7.40;91.90;;;;;;5110864;28;20498;-77
2020/12/29 07:44:56;;;;;;;8.07;6.90;;;7.60;91.50;;;;;;5109423;28;20850;-78
2020/12/29 07:47:31;;;;;;;7.93;6.28;;;7.90;90.80;;;;;;5110342;28;20179;-77
2020/12/29 07:50:00;;;;;;;5.25;4.75;;;8.00;90.30;;;;;;5110074;28;20440;-77
2020/12/29 07:52:35;;;;;;;8.45;7.13;;;8.20;90.20;;;;;;5107175;28;20234;-77
2020/12/29 07:55:09;;;;;;;8.25;5.20;;;8.40;88.70;;;;;;5106870;28;20175;-78
2020/12/29 07:57:50;;;;;;;6.30;5.57;;;8.70;87.00;;;;;;5107767;28;20211;-78
2020/12/29 08:00:17;;;;;;;10.32;8.43;;;8.90;86.30;;;;;;5108617;28;20178;-77
2020/12/29 08:03:01;;;;;;;6.32;4.60;;;8.90;85.50;;;;;;5108898;28;20215;-77
2020/12/29 08:05:29;;;;;;;5.40;4.55;;;9.20;83.50;;;;;;5109174;28;20258;-77
2020/12/29 08:08:07;;;;;;;5.70;4.20;;;9.30;83.30;;;;;;5110211;28;20171;-78
2020/12/29 08:10:35;;;;;;;7.57;5.35;;;9.20;82.70;;;;;;5109207;28;20156;-77
2020/12/29 08:13:06;;;;;;;6.82;4.97;;;9.60;82.70;;;;;;5110307;28;20270;-77
2020/12/29 08:15:41;;;;;;;7.38;5.60;;;9.80;80.40;;;;;;5110004;28;20167;-77
2020/12/29 08:18:35;;;;;;;5.15;4.65;;;9.70;80.50;;;;;;5108973;28;20650;-78
2020/12/29 08:21:01;;;;;;;7.43;6.03;;;9.40;82.10;;;;;;5108924;28;20215;-78
2020/12/29 08:23:39;;;;;;;8.53;5.80;;;9.60;81.10;;;;;;5109913;28;20176;-79
2020/12/29 08:26:12;;;;;;;7.75;6.95;;;9.60;81.30;;;;;;5107713;28;20431;-78
2020/12/29 08:28:44;;;;;;;5.00;4.40;;;9.00;84.10;;;;;;5108068;28;20211;-78
2020/12/29 08:31:15;;;;;;;5.82;4.68;;;9.30;83.90;;;;;;5109497;28;20180;-78
2020/12/29 08:33:43;;;;;;;6.82;5.03;;;9.30;84.30;;;;;;5108319;28;20175;-78
2020/12/29 08:36:13;;;;;;;7.57;4.78;;;9.40;84.00;;;;;;5108249;28;20191;-78
2020/12/29 08:38:49;;;;;;;5.90;4.13;;;9.40;84.40;;;;;;5109095;27;20191;-78
2020/12/29 08:41:25;;;;;;;4.80;4.00;;;9.30;84.00;;;;;;5109415;28;20371;-78
2020/12/29 08:44:00;;;;;;;4.90;3.75;;;9.50;83.80;;;;;;5107679;28;20194;-77
2020/12/29 08:46:36;;;;;;;5.18;4.20;;;9.30;83.70;;;;;;5109313;28;20226;-78
2020/12/29 08:49:05;;;;;;;7.22;3.33;;;9.20;84.70;;;;;;5109975;28;20167;-78
2020/12/29 08:51:41;;;;;;;5.38;4.00;;;9.40;84.90;;;;;;5110247;28;20175;-78
2020/12/29 08:54:20;;;;;;;4.10;3.08;;;9.70;83.30;;;;;;5109111;28;20310;-78
2020/12/29 08:56:59;;;;;;;4.93;2.10;;;9.60;83.50;;;;;;5107662;28;20179;-78
2020/12/29 08:59:44;;;;;;;3.83;3.22;;;9.50;84.40;;;;;;5108491;28;20751;-78
2020/12/29 09:02:15;;;;;;;3.60;2.60;;;9.80;83.10;;;;;;5108681;28;20639;-78
2020/12/29 09:04:44;;;;;;;4.63;2.88;;;9.90;83.20;;;;;;5108344;28;20520;-79
2020/12/29 09:07:14;;;;;;;5.43;4.55;;;10.20;82.50;;;;;;5108231;28;20628;-79
2020/12/29 09:10:26;;;;;;;4.22;3.25;;;10.10;81.10;;;;;;5110253;28;20188;-78
2020/12/29 09:12:55;;;;;;;3.33;3.00;;;10.50;80.00;;;;;;5108076;28;20187;-79
2020/12/29 09:15:34;;;;;;;3.97;3.43;;;11.10;77.80;;;;;;5106612;28;20412;-78
2020/12/29 09:18:00;;;;;;;5.67;4.63;;;12.00;74.40;;;;;;5109223;28;20404;-78
2020/12/29 09:20:30;;;;;;;6.70;4.97;;;12.00;72.30;;;;;;5108689;28;20431;-78
2020/12/29 09:23:15;;;;;;;5.73;2.67;;;11.80;73.10;;;;;;5108725;28;20566;-78
2020/12/29 09:25:47;;;;;;;5.97;3.30;;;11.80;71.50;;;;;;5108423;28;20432;-79
2020/12/29 09:28:26;;;;;;;7.47;3.50;;;11.40;73.70;;;;;;5108589;28;20412;-78
2020/12/29 09:31:10;;;;;;;4.40;3.50;;;11.70;73.40;;;;;;5108237;28;20423;-78
2020/12/29 09:33:39;;;;;;;8.20;7.33;;;11.50;72.30;;;;;;5106946;28;20445;-78
2020/12/29 09:36:17;;;;;;;7.80;5.60;;;11.50;72.20;;;;;;5109157;27;20438;-77
2020/12/29 09:39:01;;;;;;;6.87;5.70;;;11.70;73.60;;;;;;5108429;28;20404;-78
2020/12/29 09:41:32;;;;;;;4.83;4.20;;;12.90;69.70;;;;;;5107823;28;20559;-78
2020/12/29 09:43:58;;;;;;;8.20;4.93;;;13.00;66.70;;;;;;5107712;28;20873;-78
2020/12/29 09:46:36;;;;;;;4.43;3.53;;;12.80;69.00;;;;;;5112068;28;20416;-77
2020/12/29 09:49:05;;;;;;;4.70;3.80;;;12.50;69.90;;;;;;5110917;28;20167;-77
2020/12/29 09:51:31;;;;;;;10.10;4.80;;;12.40;70.90;;;;;;5109517;28;20777;-77
2020/12/29 09:53:57;;;;;;;8.33;5.47;;;13.10;69.30;;;;;;5108303;28;20459;-77
2020/12/29 09:56:30;;;;;;;6.00;5.40;;;13.00;70.20;;;;;;5106257;28;20931;-78
2020/12/29 09:58:56;;;;;;;5.57;4.60;;;13.00;69.90;;;;;;5107747;28;21003;-78
2020/12/29 10:01:22;;;;;;;5.13;3.80;;;12.60;71.00;;;;;;5108062;28;20468;-78
2020/12/29 10:06:56;;;;;;;7.13;6.20;;;12.70;71.90;;;;;;5108081;28;20243;-77
2020/12/29 10:09:27;;;;;;;8.30;4.90;;;13.30;68.20;;;;;;5108160;28;20400;-78
2020/12/29 10:11:53;;;;;;;5.70;3.77;;;12.90;70.10;;;;;;5107207;28;20214;-78
2020/12/29 10:14:24;;;;;;;4.10;3.70;;;12.00;73.70;;;;;;5108014;28;20407;-78
2020/12/29 10:16:53;;;;;;;6.37;4.17;;;12.30;72.00;;;;;;5107976;28;20179;-77
2020/12/29 10:19:18;;;;;;;4.20;3.27;;;12.50;71.80;;;;;;5107901;28;20491;-78
2020/12/29 10:21:50;;;;;;;4.20;3.87;;;13.20;68.80;;;;;;5105589;28;20463;-78
2020/12/29 10:24:16;;;;;;;4.80;3.50;;;13.70;66.40;;;;;;5108085;28;20591;-78
2020/12/29 10:26:44;;;;;;;8.07;4.17;;;13.50;68.10;;;;;;5107903;28;20824;-78
2020/12/29 10:29:10;;;;;;;7.10;3.63;;;13.10;68.50;;;;;;5107946;28;20708;-77
2020/12/29 10:31:36;;;;;;;4.50;3.90;;;13.90;65.70;;;;;;5108071;28;20876;-78
2020/12/29 10:34:02;;;;;;;4.77;3.20;;;14.20;64.30;;;;;;5108267;28;20648;-78
2020/12/29 10:36:38;;;;;;;5.93;3.43;;;14.30;62.50;;;;;;5105285;28;20191;-77
2020/12/29 10:39:07;;;;;;;8.30;3.83;;;13.80;63.90;;;;;;5106410;28;20412;-78
2020/12/29 10:41:40;;;;;;;4.60;3.50;;;14.00;64.10;;;;;;5100898;28;20468;-78
2020/12/29 10:44:07;;;;;;;5.90;3.23;;;14.40;61.90;;;;;;5097844;28;20420;-77
2020/12/29 10:46:33;;;;;;;4.90;3.20;;;13.80;62.80;;;;;;5098738;28;20989;-78
2020/12/29 10:49:02;;;;;;;6.43;3.60;;;13.40;65.30;;;;;;5095931;28;20433;-77
2020/12/29 10:51:37;;;;;;;8.57;6.10;;;13.70;64.40;;;;;;5096941;28;20272;-78
2020/12/29 10:54:09;;;;;;;8.10;4.40;;;13.90;64.40;;;;;;5104611;28;20978;-78
2020/12/29 10:56:43;;;;;;;15.20;10.30;;;13.60;64.60;;;;;;5107115;28;20823;-77
2020/12/29 10:59:09;;;;;;;15.10;11.23;;;14.00;60.80;;;;;;5104568;28;20426;-77
2020/12/29 11:01:37;;;;;;;14.00;12.47;;;13.90;60.90;;;;;;5104108;28;20519;-78
2020/12/29 11:04:03;;;;;;;3.70;2.50;;;14.10;60.20;;;;;;5105334;28;20168;-77
2020/12/29 11:06:31;;;;;;;6.10;4.40;;;13.50;61.10;;;;;;5104677;28;20889;-78
2020/12/29 11:08:57;;;;;;;4.97;3.50;;;13.80;62.90;;;;;;5105053;28;20175;-77
2020/12/29 11:11:29;;;;;;;4.27;2.83;;;13.80;62.50;;;;;;5104160;28;20796;-77
2020/12/29 11:13:54;;;;;;;4.40;3.00;;;13.90;62.70;;;;;;5104711;28;20175;-77
2020/12/29 11:16:21;;;;;;;4.13;2.73;;;13.80;64.40;;;;;;5105400;28;20424;-78
2020/12/29 11:18:59;;;;;;;3.87;3.20;;;13.70;64.40;;;;;;5106256;28;20671;-77
2020/12/29 11:21:24;;;;;;;5.67;3.33;;;13.50;64.10;;;;;;5107113;28;20455;-77
2020/12/29 11:23:53;;;;;;;5.23;3.50;;;13.70;62.80;;;;;;5106722;28;20976;-78
2020/12/29 11:26:22;;;;;;;5.60;3.83;;;13.60;63.10;;;;;;5105649;28;20420;-78
2020/12/29 11:28:54;;;;;;;4.20;3.63;;;13.60;64.80;;;;;;5106360;28;20469;-78
2020/12/29 11:31:24;;;;;;;5.63;4.57;;;13.60;63.30;;;;;;5106754;28;20783;-77
2020/12/29 11:33:52;;;;;;;5.67;4.10;;;13.50;64.20;;;;;;5106799;28;20783;-77
2020/12/29 11:36:33;;;;;;;5.80;3.83;;;13.80;63.60;;;;;;5106110;28;20455;-78
2020/12/29 11:38:58;;;;;;;4.73;3.30;;;13.80;63.60;;;;;;5105201;28;20848;-78
2020/12/29 11:41:24;;;;;;;6.73;4.33;;;13.70;62.40;;;;;;5104893;28;20501;-78
2020/12/29 11:43:51;;;;;;;3.87;3.03;;;13.80;63.40;;;;;;5104392;28;20577;-78
2020/12/29 11:46:19;;;;;;;4.13;3.30;;;14.00;62.30;;;;;;5104221;28;20208;-78
2020/12/29 11:48:45;;;;;;;4.07;3.20;;;14.10;60.40;;;;;;5104216;28;20841;-78
2020/12/29 11:51:14;;;;;;;3.90;2.37;;;14.10;61.10;;;;;;5105708;28;20424;-78
2020/12/29 11:53:40;;;;;;;3.33;3.00;;;14.30;61.00;;;;;;5104849;28;20249;-78
2020/12/29 11:56:10;;;;;;;5.63;2.53;;;14.50;61.30;;;;;;5105835;28;20460;-77
2020/12/29 11:58:41;;;;;;;6.00;2.90;;;14.40;59.80;;;;;;5108683;28;21055;-77
2020/12/29 12:01:07;;;;;;;2.83;2.57;;;14.30;60.30;;;;;;5110319;28;20484;-77
2020/12/29 12:03:35;;;;;;;10.70;3.83;;;14.30;60.00;;;;;;5110282;28;20892;-78
2020/12/29 12:06:00;;;;;;;4.70;2.90;;;14.40;59.30;;;;;;5109847;28;20452;-78
2020/12/29 12:08:26;;;;;;;4.50;3.00;;;14.40;59.10;;;;;;5109610;28;20866;-77
2020/12/29 12:10:52;;;;;;;3.23;2.70;;;14.50;58.20;;;;;;5110252;28;20180;-77
2020/12/29 12:13:17;;;;;;;4.00;3.13;;;14.50;58.10;;;;;;5110834;27;20217;-77
2020/12/29 12:15:43;;;;;;;5.00;3.13;;;14.70;58.40;;;;;;5108068;28;20184;-78
2020/12/29 12:18:08;;;;;;;4.63;4.10;;;14.50;58.80;;;;;;5109882;28;20172;-78
2020/12/29 12:20:34;;;;;;;3.90;3.50;;;14.70;58.80;;;;;;5109396;28;20172;-77
2020/12/29 12:23:08;;;;;;;4.07;2.33;;;14.30;58.40;;;;;;5110264;28;20628;-77
2020/12/29 12:25:34;;;;;;;4.90;4.17;;;14.20;58.10;;;;;;5110012;28;20687;-77
2020/12/29 12:28:00;;;;;;;4.70;3.63;;;14.40;57.50;;;;;;5108943;28;20416;-77
2020/12/29 12:30:25;;;;;;;4.23;3.00;;;14.50;58.00;;;;;;5107789;28;20898;-77
2020/12/29 12:32:54;;;;;;;5.97;3.30;;;14.40;57.40;;;;;;5108559;28;20529;-78
2020/12/29 12:35:22;;;;;;;3.53;2.87;;;14.50;57.50;;;;;;5110443;28;20255;-78
2020/12/29 12:37:51;;;;;;;4.70;3.17;;;14.50;58.10;;;;;;5109892;28;20428;-77
2020/12/29 12:40:17;;;;;;;3.73;3.20;;;14.40;58.30;;;;;;5109310;28;20415;-77
2020/12/29 12:42:48;;;;;;;6.87;4.20;;;14.40;58.30;;;;;;5109497;28;20455;-78
2020/12/29 12:45:14;;;;;;;6.60;4.93;;;14.50;59.30;;;;;;5109620;28;20231;-78
2020/12/29 12:47:42;;;;;;;6.20;4.20;;;14.60;57.00;;;;;;5109381;28;20511;-78
2020/12/29 12:50:13;;;;;;;4.63;4.10;;;14.70;58.10;;;;;;5109764;28;20251;-78
2020/12/29 12:52:45;;;;;;;6.50;4.53;;;14.70;59.20;;;;;;5108545;28;20455;-78
2020/12/29 12:55:19;;;;;;;4.93;3.90;;;14.70;61.30;;;;;;5109833;28;20464;-77
2020/12/29 12:57:48;;;;;;;4.63;3.47;;;15.00;61.50;;;;;;5110088;28;21314;-78
2020/12/29 13:00:13;;;;;;;4.83;3.70;;;14.60;61.10;;;;;;5109335;28;20415;-78
2020/12/29 13:02:39;;;;;;;5.47;3.57;;;14.50;60.30;;;;;;5107622;28;20520;-77
2020/12/29 13:05:04;;;;;;;3.50;3.17;;;14.70;60.80;;;;;;5108826;28;20541;-78
2020/12/29 13:07:30;;;;;;;5.20;3.80;;;14.50;63.90;;;;;;5107161;28;20687;-78
2020/12/29 13:09:56;;;;;;;5.80;4.03;;;14.20;66.90;;;;;;5109123;28;20179;-78
2020/12/29 13:12:21;;;;;;;7.23;5.10;;;14.30;66.50;;;;;;5107317;28;20180;-78
2020/12/29 13:14:47;;;;;;;5.00;4.40;;;14.30;66.80;;;;;;5107732;28;20191;-77